Terminal Aerodrome Forecast
Issued by NWS

Home | Current Version | Previous Version | Text Only | Print | Product List | Glossary On
Versions: 1 2 3 4 5 6 7 8 9 10 11 12 13 14 15 16 17 18
711
FTUS46 KSEW 221126
TAFBLI
TAF
KBLI 221126Z 2212/2312 18004KT P6SM SCT015 BKN025 OVC040
      TEMPO 2216/2220 5SM -SHRA BKN015 OVC025
     FM222000 VRB04KT P6SM VCSH SCT025 BKN100
     FM230000 VRB03KT P6SM SCT100 SCT200=

USA.gov is the U.S. government's official web portal to all federal, state and local government web resources and services.